createdAt,value
2018-05-26T00:00:49.771Z,11.93
2018-05-26T00:03:18.105Z,11.83
2018-05-26T00:05:46.528Z,11.20
2018-05-26T00:08:14.979Z,11.90
2018-05-26T00:10:43.321Z,11.10
2018-05-26T00:13:11.711Z,11.97
2018-05-26T00:15:40.232Z,11.10
2018-05-26T00:18:08.558Z,13.33
2018-05-26T00:20:36.909Z,12.60
2018-05-26T00:23:06.023Z,14.77
2018-05-26T00:25:34.429Z,14.83
2018-05-26T00:28:02.695Z,13.30
2018-05-26T00:30:31.061Z,15.13
2018-05-26T00:32:59.496Z,15.23
2018-05-26T00:35:27.922Z,16.00
2018-05-26T00:37:56.347Z,14.83
2018-05-26T00:40:24.678Z,14.83
2018-05-26T00:42:52.983Z,15.43
2018-05-26T00:45:21.844Z,16.43
2018-05-26T00:47:50.162Z,16.13
2018-05-26T00:50:18.581Z,17.03
2018-05-26T00:52:46.938Z,17.50
2018-05-26T00:55:15.347Z,17.57
2018-05-26T00:57:43.778Z,17.57
2018-05-26T01:00:13.143Z,16.13
2018-05-26T01:02:41.528Z,16.47
2018-05-26T01:05:09.876Z,17.00
2018-05-26T01:07:39.129Z,16.60
2018-05-26T01:10:07.509Z,17.07
2018-05-26T01:12:35.858Z,16.60
2018-05-26T01:15:05.114Z,18.07
2018-05-26T01:17:33.450Z,19.20
2018-05-26T01:20:01.793Z,18.80
2018-05-26T01:22:30.289Z,17.93
2018-05-26T01:24:58.667Z,19.20
2018-05-26T01:27:26.977Z,17.10
2018-05-26T01:29:56.281Z,21.53
2018-05-26T01:32:24.601Z,19.33
2018-05-26T01:34:52.918Z,18.90
2018-05-26T01:37:21.319Z,18.77
2018-05-26T01:39:49.661Z,17.33
2018-05-26T01:42:18.008Z,20.10
2018-05-26T01:44:46.415Z,19.60
2018-05-26T01:47:14.764Z,18.63
2018-05-26T01:49:43.144Z,18.90
2018-05-26T01:52:13.347Z,21.30
2018-05-26T01:54:41.967Z,21.20
2018-05-26T01:57:10.366Z,22.13
2018-05-26T01:59:38.745Z,21.90
2018-05-26T02:02:07.378Z,22.97
2018-05-26T02:04:35.772Z,23.83
2018-05-26T02:07:04.898Z,22.40
2018-05-26T02:09:33.279Z,25.63
2018-05-26T02:12:01.613Z,25.13
2018-05-26T02:14:30.310Z,24.87
2018-05-26T02:16:58.633Z,25.13
2018-05-26T02:19:26.964Z,25.97
2018-05-26T02:21:55.319Z,26.40
2018-05-26T02:24:23.660Z,25.27
2018-05-26T02:26:51.981Z,26.17
2018-05-26T02:29:20.967Z,25.70
2018-05-26T02:31:49.293Z,25.80
2018-05-26T02:34:17.657Z,26.40
2018-05-26T02:36:46.850Z,26.47
2018-05-26T02:39:15.205Z,23.00
2018-05-26T02:41:43.589Z,23.77
2018-05-26T02:44:12.012Z,24.70
2018-05-26T02:46:40.391Z,24.87
2018-05-26T02:49:08.845Z,26.90
2018-05-26T02:51:37.886Z,25.83
2018-05-26T02:54:06.399Z,24.80
2018-05-26T02:56:34.776Z,25.60
2018-05-26T02:59:04.002Z,24.77
2018-05-26T03:01:32.348Z,26.10
2018-05-26T03:04:00.140Z,27.13
2018-05-26T03:06:34.226Z,26.33
2018-05-26T03:09:08.203Z,27.37
2018-05-26T03:11:42.384Z,26.70
2018-05-26T03:14:16.530Z,25.63
2018-05-26T03:16:47.748Z,26.77
2018-05-26T03:19:16.066Z,27.43
2018-05-26T03:21:44.462Z,27.40
2018-05-26T03:24:12.826Z,26.73
2018-05-26T03:26:41.293Z,27.70
2018-05-26T03:29:09.645Z,26.23
2018-05-26T03:31:38.248Z,27.93
2018-05-26T03:34:06.592Z,25.80
2018-05-26T03:36:34.913Z,24.57
2018-05-26T03:39:03.269Z,24.57
2018-05-26T03:41:31.601Z,24.17
2018-05-26T03:43:59.946Z,22.70
2018-05-26T03:46:28.316Z,23.30
2018-05-26T03:48:56.662Z,21.97
2018-05-26T03:51:24.952Z,22.40
2018-05-26T03:53:53.317Z,20.40
2018-05-26T03:56:34.525Z,21.97
2018-05-26T03:59:14.728Z,22.20
2018-05-26T04:01:43.063Z,18.27
2018-05-26T04:04:11.438Z,21.37
2018-05-26T04:06:39.800Z,20.33
2018-05-26T04:09:08.170Z,20.23
2018-05-26T04:11:36.508Z,20.30
2018-05-26T04:14:05.742Z,20.10
2018-05-26T04:16:34.076Z,19.47
2018-05-26T04:19:02.401Z,22.30
2018-05-26T04:21:30.781Z,20.47
2018-05-26T04:23:59.109Z,21.63
2018-05-26T04:26:27.500Z,19.23
2018-05-26T04:28:55.842Z,19.40
2018-05-26T04:31:24.199Z,21.40
2018-05-26T04:33:52.525Z,22.73
2018-05-26T04:36:20.982Z,18.50
2018-05-26T04:38:49.281Z,19.80
2018-05-26T04:41:17.579Z,20.90
2018-05-26T04:43:45.935Z,18.87
2018-05-26T04:46:14.262Z,18.07
2018-05-26T04:48:42.641Z,18.40
2018-05-26T04:51:11.048Z,18.40
2018-05-26T04:53:39.443Z,16.93
2018-05-26T04:56:07.776Z,18.70
2018-05-26T04:58:36.217Z,18.97
2018-05-26T05:01:04.588Z,18.03
2018-05-26T05:03:32.912Z,16.40
2018-05-26T05:06:02.605Z,19.10
2018-05-26T05:08:31.060Z,17.43
2018-05-26T05:10:59.372Z,17.27
2018-05-26T05:13:28.078Z,16.67
2018-05-26T05:15:56.381Z,17.27
2018-05-26T05:18:24.941Z,19.90
2018-05-26T05:20:53.295Z,19.37
2018-05-26T05:23:21.618Z,18.20
2018-05-26T05:25:50.123Z,24.70
2018-05-26T05:28:18.749Z,18.20
2018-05-26T05:30:47.203Z,20.77
2018-05-26T05:33:15.708Z,23.50
2018-05-26T05:35:44.492Z,20.43
2018-05-26T05:38:12.876Z,21.70
2018-05-26T05:40:41.306Z,18.67
2018-05-26T05:43:09.766Z,18.80
2018-05-26T05:45:39.044Z,15.80
2018-05-26T05:48:07.409Z,15.93
2018-05-26T05:50:35.864Z,18.47
2018-05-26T05:53:04.210Z,15.73
2018-05-26T05:55:32.547Z,15.80
2018-05-26T05:58:01.285Z,14.07
2018-05-26T06:00:29.621Z,15.40
2018-05-26T06:02:57.995Z,15.03
2018-05-26T06:05:26.374Z,14.90
2018-05-26T06:07:54.714Z,13.90
2018-05-26T06:10:23.094Z,13.20
2018-05-26T06:12:51.730Z,13.30
2018-05-26T06:15:20.064Z,13.37
2018-05-26T06:17:48.461Z,12.10
2018-05-26T06:20:16.985Z,15.07
2018-05-26T06:22:45.338Z,12.87
2018-05-26T06:25:13.708Z,16.20
2018-05-26T06:27:42.599Z,12.53
2018-05-26T06:30:10.985Z,12.17
2018-05-26T06:32:39.397Z,11.43
2018-05-26T06:35:07.875Z,10.53
2018-05-26T06:37:36.236Z,10.93
2018-05-26T06:40:04.633Z,9.90
2018-05-26T06:42:33.540Z,8.80
2018-05-26T06:45:01.860Z,12.00
2018-05-26T06:47:30.299Z,10.10
2018-05-26T06:49:59.151Z,10.93
2018-05-26T06:52:27.466Z,9.47
2018-05-26T06:54:55.843Z,8.53
2018-05-26T06:57:24.183Z,10.60
2018-05-26T06:59:52.522Z,15.30
2018-05-26T07:02:20.857Z,11.90
2018-05-26T07:04:49.239Z,12.40
2018-05-26T07:07:17.619Z,8.70
2018-05-26T07:09:45.984Z,7.93
2018-05-26T07:12:14.460Z,7.20
2018-05-26T07:14:42.845Z,7.40
2018-05-26T07:17:11.249Z,7.57
2018-05-26T07:19:39.938Z,7.00
2018-05-26T07:22:08.306Z,7.70
2018-05-26T07:24:36.715Z,8.20
2018-05-26T07:27:05.034Z,9.17
2018-05-26T07:29:33.375Z,10.70
2018-05-26T07:32:01.697Z,10.30
2018-05-26T07:34:31.278Z,12.20
2018-05-26T07:37:00.221Z,9.83
2018-05-26T07:39:28.565Z,10.40
2018-05-26T07:41:56.924Z,11.27
2018-05-26T07:44:25.264Z,10.90
2018-05-26T07:46:53.591Z,10.37
2018-05-26T07:49:21.962Z,10.10
2018-05-26T07:51:50.370Z,10.30
2018-05-26T07:54:18.699Z,10.63
2018-05-26T07:56:47.082Z,9.87
2018-05-26T07:59:15.416Z,10.10
2018-05-26T08:01:43.799Z,10.07
2018-05-26T08:04:12.379Z,9.53
2018-05-26T08:06:40.927Z,10.20
2018-05-26T08:09:09.521Z,9.60
2018-05-26T08:11:38.684Z,8.90
2018-05-26T08:14:07.019Z,9.00
2018-05-26T08:16:35.357Z,9.37
2018-05-26T08:19:03.893Z,8.90
2018-05-26T08:21:32.666Z,8.10
2018-05-26T08:24:00.974Z,8.83
2018-05-26T08:26:30.159Z,7.10
2018-05-26T08:28:58.566Z,8.50
2018-05-26T08:31:26.859Z,8.47
2018-05-26T08:33:55.281Z,8.43
2018-05-26T08:36:23.675Z,10.27
2018-05-26T08:38:51.992Z,8.47
2018-05-26T08:41:20.374Z,9.17
2018-05-26T08:43:48.733Z,8.77
2018-05-26T08:46:17.276Z,7.63
2018-05-26T08:48:45.816Z,8.50
2018-05-26T08:51:14.154Z,9.30
2018-05-26T08:53:42.537Z,9.97
2018-05-26T08:56:12.161Z,8.60
2018-05-26T08:58:40.540Z,7.10
2018-05-26T09:01:08.899Z,6.40
2018-05-26T09:03:37.580Z,6.57
2018-05-26T09:06:05.905Z,6.97
2018-05-26T09:08:34.283Z,6.73
2018-05-26T09:11:02.601Z,7.30
2018-05-26T09:13:30.927Z,6.73
2018-05-26T09:15:59.225Z,6.33
2018-05-26T09:18:27.847Z,5.90
2018-05-26T09:20:56.146Z,6.37
2018-05-26T09:23:24.491Z,5.90
2018-05-26T09:25:52.857Z,6.30
2018-05-26T09:28:21.228Z,6.00
2018-05-26T09:30:49.645Z,5.80
2018-05-26T09:33:18.787Z,6.13
2018-05-26T09:35:47.125Z,6.43
2018-05-26T09:38:15.465Z,5.90
2018-05-26T09:40:44.566Z,6.63
2018-05-26T09:43:12.939Z,6.53
2018-05-26T09:45:41.254Z,6.10
2018-05-26T09:48:09.761Z,5.97
2018-05-26T09:50:38.940Z,5.80
2018-05-26T09:53:07.265Z,6.40
2018-05-26T09:55:36.181Z,6.37
2018-05-26T09:58:04.498Z,5.30
2018-05-26T10:00:32.818Z,6.20
2018-05-26T10:03:01.915Z,5.80
2018-05-26T10:05:30.220Z,6.60
2018-05-26T10:07:58.519Z,6.90
2018-05-26T10:10:26.873Z,6.97
2018-05-26T10:12:55.183Z,6.70
2018-05-26T10:15:23.511Z,6.50
2018-05-26T10:17:52.342Z,6.50
2018-05-26T10:20:21.357Z,8.30
2018-05-26T10:22:49.697Z,7.13
2018-05-26T10:25:19.037Z,6.70
2018-05-26T10:27:47.555Z,6.83
2018-05-26T10:30:15.922Z,7.27
2018-05-26T10:32:44.324Z,7.20
2018-05-26T10:35:12.652Z,5.93
2018-05-26T10:37:40.994Z,5.90
2018-05-26T10:40:09.414Z,6.47
2018-05-26T10:42:37.796Z,6.07
2018-05-26T10:45:06.101Z,5.93
2018-05-26T10:47:34.650Z,6.17
2018-05-26T10:50:03.012Z,5.40
2018-05-26T10:52:31.380Z,5.40
2018-05-26T10:54:59.960Z,4.67
2018-05-26T10:57:28.314Z,4.90
2018-05-26T10:59:56.647Z,5.33
2018-05-26T11:02:25.590Z,5.63
2018-05-26T11:04:53.912Z,6.07
2018-05-26T11:07:22.248Z,6.60
2018-05-26T11:09:50.657Z,6.20
2018-05-26T11:12:19.001Z,5.63
2018-05-26T11:14:47.340Z,6.50
2018-05-26T11:17:15.848Z,6.30
2018-05-26T11:19:44.197Z,6.07
2018-05-26T11:22:12.569Z,5.40
2018-05-26T11:24:43.031Z,5.40
2018-05-26T11:27:11.335Z,5.60
2018-05-26T11:29:39.819Z,5.60
2018-05-26T11:32:08.368Z,5.60
2018-05-26T11:34:36.688Z,5.40
2018-05-26T11:37:04.994Z,5.80
2018-05-26T11:39:33.711Z,5.97
2018-05-26T11:42:02.050Z,5.20
2018-05-26T11:44:30.388Z,5.17
2018-05-26T11:46:59.382Z,5.57
2018-05-26T11:49:27.782Z,6.10
2018-05-26T11:51:56.065Z,6.00
2018-05-26T11:54:24.651Z,6.33
2018-05-26T11:56:52.974Z,9.37
2018-05-26T11:59:21.361Z,5.93
2018-05-26T12:01:49.844Z,5.40
2018-05-26T12:04:18.193Z,5.97
2018-05-26T12:06:46.596Z,4.97
2018-05-26T12:09:15.180Z,4.77
2018-05-26T12:11:43.530Z,4.80
2018-05-26T12:14:11.917Z,5.80
2018-05-26T12:16:41.109Z,5.40
2018-05-26T12:19:09.438Z,6.00
2018-05-26T12:21:37.763Z,5.40
2018-05-26T12:24:06.189Z,5.27
2018-05-26T12:26:34.518Z,6.30
2018-05-26T12:29:02.868Z,6.53
2018-05-26T12:31:32.047Z,5.57
2018-05-26T12:34:00.416Z,6.37
2018-05-26T12:36:28.681Z,7.60
2018-05-26T12:38:57.402Z,7.60
2018-05-26T12:41:25.808Z,5.97
2018-05-26T12:43:54.136Z,5.47
2018-05-26T12:46:23.084Z,4.57
2018-05-26T12:48:51.385Z,6.10
2018-05-26T12:51:19.736Z,6.63
2018-05-26T12:53:48.114Z,6.40
2018-05-26T12:56:16.503Z,5.10
2018-05-26T12:58:44.824Z,5.97
2018-05-26T13:01:13.254Z,5.10
2018-05-26T13:03:41.615Z,5.97
2018-05-26T13:06:10.043Z,5.10
2018-05-26T13:08:39.102Z,5.07
2018-05-26T13:11:07.430Z,5.50
2018-05-26T13:13:35.763Z,4.30
2018-05-26T13:16:04.090Z,5.13
2018-05-26T13:18:32.408Z,6.33
2018-05-26T13:21:00.719Z,4.90
2018-05-26T13:23:29.064Z,4.50
2018-05-26T13:25:58.334Z,4.63
2018-05-26T13:28:26.677Z,4.20
2018-05-26T13:30:55.085Z,4.27
2018-05-26T13:33:23.417Z,4.57
2018-05-26T13:35:51.854Z,4.23
2018-05-26T13:38:20.377Z,4.23
2018-05-26T13:40:48.793Z,4.90
2018-05-26T13:43:17.148Z,4.80
2018-05-26T13:45:46.360Z,4.50
2018-05-26T13:48:14.755Z,5.43
2018-05-26T13:50:43.137Z,6.70
2018-05-26T13:53:11.709Z,4.63
2018-05-26T13:55:39.957Z,4.13
2018-05-26T13:58:09.236Z,4.60
2018-05-26T14:00:38.557Z,5.20
2018-05-26T14:03:06.899Z,4.93
2018-05-26T14:05:35.214Z,4.60
2018-05-26T14:08:04.413Z,5.23
2018-05-26T14:10:32.698Z,5.83
2018-05-26T14:13:01.009Z,4.70
2018-05-26T14:15:29.435Z,6.10
2018-05-26T14:17:57.751Z,4.20
2018-05-26T14:20:26.085Z,4.70
2018-05-26T14:22:54.437Z,4.10
2018-05-26T14:25:23.011Z,3.73
2018-05-26T14:27:51.338Z,4.10
2018-05-26T14:30:20.109Z,3.90
2018-05-26T14:32:48.458Z,4.33
2018-05-26T14:35:16.826Z,3.83
2018-05-26T14:37:45.185Z,3.70
2018-05-26T14:40:13.531Z,4.33
2018-05-26T14:42:41.915Z,4.10
2018-05-26T14:45:11.125Z,3.53
2018-05-26T14:47:39.482Z,4.10
2018-05-26T14:50:08.063Z,4.00
2018-05-26T14:52:36.387Z,4.30
2018-05-26T14:55:04.737Z,4.23
2018-05-26T14:57:33.965Z,3.83
2018-05-26T15:00:02.301Z,6.20
2018-05-26T15:02:30.687Z,4.80
2018-05-26T15:05:01.536Z,5.23
2018-05-26T15:07:30.864Z,4.10
2018-05-26T15:09:59.197Z,6.37
2018-05-26T15:12:30.834Z,5.50
2018-05-26T15:14:59.324Z,4.60
2018-05-26T15:17:28.132Z,5.73
2018-05-26T15:19:56.463Z,8.43
2018-05-26T15:22:24.793Z,6.00
2018-05-26T15:24:53.123Z,3.70
2018-05-26T15:27:21.444Z,4.13
2018-05-26T15:36:52.838Z,5.13
2018-05-26T15:39:23.163Z,4.80
2018-05-26T15:42:04.139Z,3.97
2018-05-26T15:44:34.481Z,4.33
2018-05-26T15:47:10.711Z,4.07
2018-05-26T15:49:48.952Z,4.27
2018-05-26T15:52:28.677Z,3.83
2018-05-26T16:08:54.072Z,5.97
2018-05-26T16:17:33.241Z,4.80
